createdAt,value
2023-04-04T00:01:45.720Z,22.63
2023-04-04T00:04:12.620Z,22.95
2023-04-04T00:06:44.184Z,22.20
2023-04-04T00:09:11.404Z,21.63
2023-04-04T00:11:38.725Z,21.45
2023-04-04T00:14:05.572Z,21.40
2023-04-04T00:16:32.480Z,21.70
2023-04-04T00:18:59.290Z,21.33
2023-04-04T00:21:27.308Z,21.35
2023-04-04T00:23:54.473Z,21.63
2023-04-04T00:26:21.744Z,21.10
2023-04-04T00:28:48.610Z,22.05
2023-04-04T00:31:15.976Z,20.80
2023-04-04T00:33:42.724Z,20.02
2023-04-04T00:36:09.371Z,20.05
2023-04-04T00:38:38.192Z,20.00
2023-04-04T00:41:06.550Z,20.63
2023-04-04T00:43:34.981Z,18.85
2023-04-04T00:46:01.853Z,18.35
2023-04-04T00:48:29.180Z,19.23
2023-04-04T00:50:58.868Z,17.90
2023-04-04T00:53:25.930Z,18.15
2023-04-04T00:55:52.562Z,18.52
2023-04-04T00:58:19.524Z,18.10
2023-04-04T01:00:46.472Z,18.90
2023-04-04T01:03:14.342Z,20.48
2023-04-04T01:05:41.674Z,20.13
2023-04-04T01:08:08.578Z,19.23
2023-04-04T01:10:36.609Z,19.02
2023-04-04T01:13:03.529Z,19.98
2023-04-04T01:15:30.299Z,19.30
2023-04-04T01:17:59.861Z,19.17
2023-04-04T01:20:29.211Z,19.08
2023-04-04T01:22:58.842Z,19.75
2023-04-04T01:25:32.217Z,19.42
2023-04-04T01:28:03.747Z,19.15
2023-04-04T01:30:36.780Z,18.48
2023-04-04T01:33:13.239Z,18.70
2023-04-04T01:35:59.388Z,19.05
2023-04-04T01:38:53.975Z,17.77
2023-04-04T01:41:21.457Z,17.88
2023-04-04T01:43:56.073Z,19.02
2023-04-04T01:46:23.898Z,19.08
2023-04-04T01:48:50.982Z,18.65
2023-04-04T01:51:23.747Z,18.10
2023-04-04T01:53:51.460Z,17.65
2023-04-04T01:56:18.271Z,17.27
2023-04-04T01:58:44.912Z,17.88
2023-04-04T02:01:11.562Z,17.92
2023-04-04T02:03:38.674Z,17.98
2023-04-04T02:06:05.522Z,17.42
2023-04-04T02:08:32.128Z,17.77
2023-04-04T02:10:58.980Z,17.33
2023-04-04T02:13:26.970Z,17.98
2023-04-04T02:15:54.704Z,17.88
2023-04-04T02:18:21.350Z,17.58
2023-04-04T02:20:56.381Z,18.02
2023-04-04T02:25:52.661Z,16.98
2023-04-04T02:28:19.560Z,17.00
2023-04-04T02:30:47.934Z,17.13
2023-04-04T02:33:14.552Z,16.75
2023-04-04T02:35:41.331Z,16.13
2023-04-04T02:38:07.945Z,17.77
2023-04-04T02:40:42.170Z,16.02
2023-04-04T02:43:09.332Z,16.85
2023-04-04T02:45:36.901Z,17.35
2023-04-04T02:48:22.167Z,15.35
2023-04-04T02:50:51.745Z,16.20
2023-04-04T02:53:18.580Z,16.45
2023-04-04T02:55:47.692Z,16.23
2023-04-04T02:58:14.822Z,16.80
2023-04-04T03:00:41.775Z,18.90
2023-04-04T03:03:08.875Z,19.02
2023-04-04T03:05:41.206Z,23.08
2023-04-04T03:08:08.134Z,21.38
2023-04-04T03:10:34.765Z,20.00
2023-04-04T03:13:01.350Z,30.08
2023-04-04T03:15:30.544Z,31.90
2023-04-04T03:17:58.838Z,33.95
2023-04-04T03:20:27.224Z,43.70
2023-04-04T03:22:53.926Z,21.08
2023-04-04T03:25:21.010Z,22.52
2023-04-04T03:27:47.809Z,22.83
2023-04-04T03:30:20.965Z,22.40
2023-04-04T03:32:47.655Z,28.02
2023-04-04T03:35:14.649Z,30.33
2023-04-04T03:37:42.694Z,23.83
2023-04-04T03:40:09.900Z,23.05
2023-04-04T03:42:36.582Z,26.58
2023-04-04T03:45:08.332Z,26.13
2023-04-04T03:47:36.270Z,27.90
2023-04-04T03:50:03.069Z,21.05
2023-04-04T03:52:31.042Z,22.63
2023-04-04T03:54:58.109Z,19.63
2023-04-04T03:57:27.234Z,25.45
2023-04-04T03:59:53.940Z,25.80
2023-04-04T04:02:22.453Z,20.52
2023-04-04T04:04:49.236Z,19.70
2023-04-04T04:07:16.015Z,20.40
2023-04-04T04:09:42.756Z,18.38
2023-04-04T04:12:09.931Z,19.33
2023-04-04T04:14:37.265Z,19.63
2023-04-04T04:17:04.272Z,18.85
2023-04-04T04:19:31.202Z,19.45
2023-04-04T04:21:57.903Z,18.77
2023-04-04T04:24:24.609Z,19.13
2023-04-04T04:26:51.221Z,20.00
2023-04-04T04:29:17.848Z,20.17
2023-04-04T04:31:45.537Z,18.67
2023-04-04T04:34:12.650Z,18.88
2023-04-04T04:36:40.905Z,19.25
2023-04-04T04:39:24.789Z,19.02
2023-04-04T04:42:10.301Z,18.58
2023-04-04T04:44:44.592Z,19.60
2023-04-04T04:47:11.837Z,18.13
2023-04-04T04:49:38.656Z,18.52
2023-04-04T04:52:08.249Z,16.83
2023-04-04T04:54:36.038Z,17.58
2023-04-04T04:57:03.183Z,18.00
2023-04-04T04:59:30.772Z,16.90
2023-04-04T05:01:59.377Z,17.05
2023-04-04T05:04:27.128Z,16.55
2023-04-04T05:07:04.101Z,18.33
2023-04-04T05:09:32.121Z,17.42
2023-04-04T05:11:58.735Z,21.38
2023-04-04T05:14:36.002Z,18.63
2023-04-04T05:17:02.927Z,18.50
2023-04-04T05:19:32.258Z,19.27
2023-04-04T05:21:59.588Z,19.60
2023-04-04T05:24:32.731Z,19.50
2023-04-04T05:27:00.660Z,20.08
2023-04-04T05:29:33.249Z,19.55
2023-04-04T05:32:01.822Z,18.67
2023-04-04T05:34:28.897Z,18.35
2023-04-04T05:36:57.604Z,18.85
2023-04-04T05:39:24.378Z,23.60
2023-04-04T05:42:01.257Z,18.75
2023-04-04T05:44:32.043Z,19.63
2023-04-04T05:46:58.844Z,19.50
2023-04-04T05:49:28.476Z,24.38
2023-04-04T05:52:01.127Z,20.98
2023-04-04T05:54:29.131Z,21.38
2023-04-04T05:56:58.161Z,22.05
2023-04-04T05:59:40.417Z,21.17
2023-04-04T06:02:09.786Z,21.60
2023-04-04T06:04:41.004Z,21.75
2023-04-04T06:07:09.067Z,21.75
2023-04-04T06:09:36.195Z,22.27
2023-04-04T06:12:06.516Z,24.20
2023-04-04T06:14:37.325Z,24.23
2023-04-04T06:17:06.579Z,25.20
2023-04-04T06:19:34.655Z,24.30
2023-04-04T06:22:01.508Z,23.45
2023-04-04T06:24:31.053Z,24.00
2023-04-04T06:26:57.905Z,21.80
2023-04-04T06:29:26.712Z,23.27
2023-04-04T06:31:55.644Z,21.33
2023-04-04T06:34:33.717Z,21.50
2023-04-04T06:37:01.253Z,20.52
2023-04-04T06:39:34.184Z,19.77
2023-04-04T06:42:03.790Z,20.08
2023-04-04T06:44:33.444Z,20.23
2023-04-04T06:47:00.189Z,22.55
2023-04-04T06:49:26.913Z,21.50
2023-04-04T06:51:54.068Z,22.15
2023-04-04T06:54:20.725Z,23.00
2023-04-04T06:56:47.547Z,22.10
2023-04-04T06:59:14.728Z,22.52
2023-04-04T07:01:41.497Z,22.98
2023-04-04T07:04:08.160Z,24.30
2023-04-04T07:06:34.752Z,26.55
2023-04-04T07:09:01.443Z,26.08
2023-04-04T07:11:29.112Z,25.83
2023-04-04T07:13:56.169Z,27.10
2023-04-04T07:16:23.268Z,27.13
2023-04-04T07:18:50.118Z,30.77
2023-04-04T07:21:17.333Z,30.52
2023-04-04T07:23:43.988Z,33.70
2023-04-04T07:26:10.620Z,30.73
2023-04-04T07:28:37.383Z,31.30
2023-04-04T07:31:04.012Z,31.13
2023-04-04T07:33:30.996Z,32.45
2023-04-04T07:35:57.850Z,32.90
2023-04-04T07:38:24.486Z,34.10
2023-04-04T07:40:51.256Z,32.50
2023-04-04T07:43:17.894Z,36.05
2023-04-04T07:45:44.634Z,37.00
2023-04-04T07:48:11.399Z,37.20
2023-04-04T07:50:38.494Z,36.30
2023-04-04T07:53:05.281Z,38.35
2023-04-04T07:55:31.865Z,37.38
2023-04-04T07:57:58.572Z,37.72
2023-04-04T08:00:26.384Z,37.47
2023-04-04T08:02:54.413Z,36.60
2023-04-04T08:05:21.634Z,40.50
2023-04-04T08:07:48.400Z,40.58
2023-04-04T08:10:17.385Z,42.22
2023-04-04T08:12:44.961Z,40.70
2023-04-04T08:15:11.959Z,40.75
2023-04-04T08:17:38.809Z,40.88
2023-04-04T08:20:07.663Z,43.40
2023-04-04T08:22:34.261Z,42.67
2023-04-04T08:25:01.017Z,40.97
2023-04-04T08:27:27.858Z,41.55
2023-04-04T08:29:54.514Z,40.28
2023-04-04T08:32:22.060Z,40.10
2023-04-04T08:34:49.623Z,40.30
2023-04-04T08:37:16.846Z,40.20
2023-04-04T08:39:43.952Z,40.38
2023-04-04T08:42:11.808Z,40.20
2023-04-04T08:44:41.724Z,40.17
2023-04-04T08:47:10.310Z,42.20
2023-04-04T08:49:43.950Z,39.28
2023-04-04T08:52:12.651Z,39.65
2023-04-04T08:54:41.145Z,39.47
2023-04-04T08:57:08.221Z,37.13
2023-04-04T08:59:35.255Z,37.17
2023-04-04T09:02:13.989Z,36.75
2023-04-04T09:04:44.572Z,37.22
2023-04-04T09:07:15.760Z,36.90
2023-04-04T09:09:46.075Z,36.60
2023-04-04T09:12:16.848Z,35.92
2023-04-04T09:14:46.117Z,36.20
2023-04-04T09:17:13.531Z,34.72
2023-04-04T09:19:40.134Z,36.25
2023-04-04T09:22:07.898Z,34.88
2023-04-04T09:24:42.534Z,37.38
2023-04-04T09:27:10.754Z,38.50
2023-04-04T09:29:41.834Z,37.50
2023-04-04T09:32:16.045Z,37.22
2023-04-04T09:34:46.109Z,39.80
2023-04-04T09:37:16.567Z,38.47
2023-04-04T09:39:43.990Z,37.58
2023-04-04T09:42:12.177Z,37.60
2023-04-04T09:44:39.406Z,38.03
2023-04-04T09:50:01.708Z,46.53
2023-04-04T09:52:32.961Z,44.47
2023-04-04T09:55:01.307Z,46.25
2023-04-04T09:57:32.706Z,44.28
2023-04-04T10:00:07.158Z,47.80
2023-04-04T10:02:38.779Z,47.42
2023-04-04T10:05:07.006Z,45.88
2023-04-04T10:07:34.555Z,44.40
2023-04-04T10:10:04.744Z,45.38
2023-04-04T10:12:31.629Z,45.35
2023-04-04T10:14:59.115Z,45.92
2023-04-04T10:17:31.956Z,48.03
2023-04-04T10:20:01.603Z,48.65
2023-04-04T10:22:28.713Z,46.80
2023-04-04T10:24:55.398Z,49.40
2023-04-04T10:27:22.128Z,47.85
2023-04-04T10:29:49.063Z,47.42
2023-04-04T10:32:23.439Z,48.95
2023-04-04T10:34:59.763Z,47.97
2023-04-04T10:37:28.153Z,48.10
2023-04-04T10:40:04.280Z,48.53
2023-04-04T10:42:38.601Z,47.05
2023-04-04T10:45:19.942Z,47.28
2023-04-04T10:47:48.652Z,48.92
2023-04-04T10:50:15.567Z,49.80
2023-04-04T10:52:44.340Z,50.58
2023-04-04T10:55:13.560Z,50.53
2023-04-04T10:57:45.662Z,49.40
2023-04-04T11:00:20.158Z,51.33
2023-04-04T11:02:53.018Z,49.83
2023-04-04T11:05:22.072Z,50.35
2023-04-04T11:10:31.969Z,48.28
2023-04-04T11:13:12.964Z,48.72
2023-04-04T11:16:01.753Z,49.25
2023-04-04T11:18:41.464Z,47.40
2023-04-04T11:21:10.351Z,49.67
2023-04-04T11:23:48.900Z,51.67
2023-04-04T11:26:19.835Z,49.05
2023-04-04T11:28:47.508Z,49.60
2023-04-04T11:31:17.572Z,50.60
2023-04-04T11:33:57.705Z,50.03
2023-04-04T11:36:39.670Z,49.30
2023-04-04T11:39:14.701Z,47.70
2023-04-04T11:42:08.168Z,49.40
2023-04-04T11:44:41.308Z,49.90
2023-04-04T11:47:09.155Z,49.50
2023-04-04T11:49:41.578Z,48.65
2023-04-04T11:52:13.948Z,50.00
2023-04-04T11:54:42.268Z,50.40
2023-04-04T11:57:12.304Z,50.15
2023-04-04T11:59:44.387Z,48.55
2023-04-04T12:02:12.160Z,49.30
2023-04-04T12:04:43.582Z,47.72
2023-04-04T12:07:10.950Z,47.63
2023-04-04T12:09:38.587Z,48.42
2023-04-04T12:12:07.400Z,44.30
2023-04-04T12:14:34.263Z,49.63
2023-04-04T12:17:02.692Z,47.90
2023-04-04T12:19:29.852Z,45.70
2023-04-04T12:21:57.982Z,49.35
2023-04-04T12:24:24.779Z,49.40
2023-04-04T12:26:52.696Z,47.45
2023-04-04T12:29:22.769Z,47.78
2023-04-04T12:31:50.553Z,48.00
2023-04-04T12:34:25.716Z,47.50
2023-04-04T12:36:52.866Z,47.47
2023-04-04T12:39:21.481Z,47.20
2023-04-04T12:42:09.004Z,47.88
2023-04-04T12:44:39.272Z,47.85
2023-04-04T12:47:10.520Z,48.22
2023-04-04T12:49:42.896Z,49.88
2023-04-04T12:52:21.724Z,50.65
2023-04-04T12:55:04.749Z,50.35
2023-04-04T12:57:34.322Z,52.33
2023-04-04T13:00:04.294Z,51.67
2023-04-04T13:02:31.097Z,48.28
2023-04-04T13:04:59.940Z,49.70
2023-04-04T13:07:28.650Z,47.78
2023-04-04T13:09:57.960Z,48.60
2023-04-04T13:12:24.978Z,50.92
2023-04-04T13:15:06.927Z,50.28
2023-04-04T13:17:45.327Z,51.42
2023-04-04T13:20:13.375Z,52.42
2023-04-04T13:22:41.380Z,53.53
2023-04-04T13:25:09.586Z,53.95
2023-04-04T13:27:37.135Z,54.28
2023-04-04T13:30:09.985Z,55.25
2023-04-04T13:32:37.748Z,51.08
2023-04-04T13:35:04.737Z,50.65
2023-04-04T13:37:31.379Z,52.55
2023-04-04T13:39:58.307Z,49.72
2023-04-04T13:42:29.932Z,50.58
2023-04-04T13:44:57.320Z,52.65
2023-04-04T13:47:27.192Z,52.92
2023-04-04T13:49:54.936Z,51.38
2023-04-04T13:52:22.094Z,50.08
2023-04-04T13:54:48.768Z,52.15
2023-04-04T13:57:15.554Z,53.33
2023-04-04T13:59:42.133Z,51.97
2023-04-04T14:02:09.656Z,54.15
2023-04-04T14:04:36.406Z,50.53
2023-04-04T14:07:03.096Z,50.58
2023-04-04T14:09:29.780Z,51.28
2023-04-04T14:11:56.421Z,51.42
2023-04-04T14:14:23.155Z,50.00
2023-04-04T14:16:49.952Z,50.58
2023-04-04T14:19:17.063Z,50.65
2023-04-04T14:21:43.679Z,49.55
2023-04-04T14:24:10.562Z,50.35
2023-04-04T14:26:37.585Z,51.50
2023-04-04T14:29:04.219Z,50.95
2023-04-04T14:31:33.317Z,50.50
2023-04-04T14:34:03.400Z,51.97
2023-04-04T14:36:30.351Z,49.40
2023-04-04T14:38:57.304Z,50.58
2023-04-04T14:41:24.023Z,49.67
2023-04-04T14:43:51.988Z,52.40
2023-04-04T14:46:19.543Z,50.67
2023-04-04T14:48:47.023Z,51.55
2023-04-04T14:51:14.060Z,51.78
2023-04-04T14:53:40.847Z,50.88
2023-04-04T14:56:08.310Z,53.22
2023-04-04T14:58:35.582Z,50.72
2023-04-04T15:01:03.527Z,53.40
2023-04-04T15:03:30.511Z,52.15
2023-04-04T15:05:57.607Z,54.40
2023-04-04T15:08:24.281Z,52.58
2023-04-04T15:10:51.132Z,52.67
2023-04-04T15:13:17.916Z,52.47
2023-04-04T15:15:45.032Z,53.80
2023-04-04T15:18:11.670Z,53.78
2023-04-04T15:20:41.479Z,56.20
2023-04-04T15:23:08.524Z,54.58
2023-04-04T15:25:36.508Z,53.25
2023-04-04T15:28:03.265Z,50.85
2023-04-04T15:30:30.831Z,49.20
2023-04-04T15:32:57.470Z,50.42
2023-04-04T15:35:24.278Z,49.63
2023-04-04T15:37:51.119Z,53.92
2023-04-04T15:40:18.984Z,50.30
2023-04-04T15:42:46.570Z,51.78
2023-04-04T15:45:14.554Z,47.53
2023-04-04T15:47:42.182Z,51.28
2023-04-04T15:50:09.370Z,55.15
2023-04-04T15:52:36.186Z,50.80
2023-04-04T15:55:04.081Z,54.10
2023-04-04T15:57:31.795Z,52.70
2023-04-04T15:59:58.733Z,50.65
2023-04-04T16:02:25.592Z,50.08
2023-04-04T16:04:52.219Z,50.17
2023-04-04T16:07:18.868Z,47.90
2023-04-04T16:09:45.934Z,43.90
2023-04-04T16:12:12.605Z,46.00
2023-04-04T16:14:39.220Z,46.85
2023-04-04T16:17:05.866Z,47.58
2023-04-04T16:19:32.493Z,45.25
2023-04-04T16:21:59.209Z,48.00
2023-04-04T16:24:26.172Z,50.42
2023-04-04T16:26:52.944Z,51.30
2023-04-04T16:29:21.181Z,59.22
2023-04-04T16:31:48.011Z,54.53
2023-04-04T16:34:14.731Z,58.70
2023-04-04T16:36:41.442Z,54.72
2023-04-04T16:39:08.179Z,53.03
2023-04-04T16:41:34.811Z,55.10
2023-04-04T16:44:01.701Z,54.17
2023-04-04T16:46:28.352Z,56.17
2023-04-04T16:48:55.245Z,56.03
2023-04-04T16:51:22.174Z,50.90
2023-04-04T16:53:48.749Z,50.65
2023-04-04T16:56:15.827Z,48.88
2023-04-04T16:58:44.994Z,48.30
2023-04-04T17:01:16.640Z,48.70
2023-04-04T17:03:43.321Z,49.35
2023-04-04T17:06:10.212Z,51.95
2023-04-04T17:08:36.936Z,64.97
2023-04-04T17:11:03.691Z,56.03
2023-04-04T17:13:30.416Z,47.20
2023-04-04T17:15:57.451Z,47.90
2023-04-04T17:18:24.079Z,46.92
2023-04-04T17:20:52.281Z,46.70
2023-04-04T17:23:18.891Z,45.53
2023-04-04T17:25:45.544Z,46.53
2023-04-04T17:28:12.176Z,47.08
2023-04-04T17:30:39.057Z,54.63
2023-04-04T17:33:05.973Z,51.10
2023-04-04T17:35:32.614Z,54.85
2023-04-04T17:37:59.194Z,43.00
2023-04-04T17:40:25.805Z,60.47
2023-04-04T17:42:52.453Z,43.33
2023-04-04T17:45:19.363Z,45.38
2023-04-04T17:47:46.195Z,44.38
2023-04-04T17:50:12.865Z,43.20
2023-04-04T17:52:39.544Z,43.55
2023-04-04T17:55:07.308Z,44.83
2023-04-04T17:57:34.068Z,43.03
2023-04-04T18:00:00.840Z,31.20
2023-04-04T18:02:27.586Z,30.25
2023-04-04T18:04:54.816Z,29.70
2023-04-04T18:07:21.769Z,30.25
2023-04-04T18:09:48.403Z,31.90
2023-04-04T18:12:15.831Z,31.25
2023-04-04T18:14:42.843Z,31.52
2023-04-04T18:17:10.641Z,31.25
2023-04-04T18:19:38.975Z,31.42
2023-04-04T18:22:06.406Z,30.35
2023-04-04T18:24:33.230Z,31.23
2023-04-04T18:27:00.353Z,31.90
2023-04-04T18:29:27.126Z,42.17
2023-04-04T18:31:54.060Z,30.48
2023-04-04T18:34:20.892Z,30.83
2023-04-04T18:36:49.351Z,29.75
2023-04-04T18:39:18.326Z,29.48
2023-04-04T18:41:46.214Z,30.92
2023-04-04T18:44:12.880Z,30.42
2023-04-04T18:46:39.570Z,30.88
2023-04-04T18:49:06.841Z,31.33
2023-04-04T18:51:33.524Z,30.33
2023-04-04T18:54:00.482Z,31.08
2023-04-04T18:56:27.320Z,30.38
2023-04-04T18:58:54.058Z,31.08
2023-04-04T19:01:20.824Z,30.92
2023-04-04T19:03:51.141Z,29.45
2023-04-04T19:06:17.851Z,30.08
2023-04-04T19:08:44.950Z,29.92
2023-04-04T19:11:12.055Z,30.15
2023-04-04T19:13:38.821Z,29.83
2023-04-04T19:16:05.515Z,29.75
2023-04-04T19:18:32.171Z,29.73
2023-04-04T19:20:58.820Z,29.83
2023-04-04T19:23:25.500Z,31.00
2023-04-04T19:25:52.227Z,32.72
2023-04-04T19:28:18.879Z,30.55
2023-04-04T19:30:47.637Z,31.02
2023-04-04T19:33:21.089Z,30.83
2023-04-04T19:36:16.046Z,31.52
2023-04-04T19:38:44.225Z,30.75
2023-04-04T19:41:22.897Z,31.58
2023-04-04T19:43:50.514Z,29.92
2023-04-04T19:46:31.494Z,31.35
2023-04-04T19:49:00.017Z,30.83
2023-04-04T19:51:27.705Z,30.80
2023-04-04T19:53:56.329Z,32.38
2023-04-04T19:56:24.829Z,33.08
2023-04-04T19:58:57.480Z,32.05
2023-04-04T20:01:29.042Z,32.85
2023-04-04T20:03:56.503Z,38.63
2023-04-04T20:06:31.444Z,38.40
2023-04-04T20:08:59.831Z,64.63
2023-04-04T20:11:32.873Z,84.65
2023-04-04T20:14:01.407Z,178.93
2023-04-04T20:16:29.799Z,139.40
2023-04-04T20:18:59.089Z,92.55
2023-04-04T20:21:28.302Z,81.03
2023-04-04T20:23:57.746Z,103.65
2023-04-04T20:26:54.262Z,84.80
2023-04-04T20:29:26.360Z,88.55
2023-04-04T20:32:01.474Z,95.72
2023-04-04T20:34:45.881Z,51.65
2023-04-04T20:37:21.768Z,37.97
2023-04-04T20:39:59.277Z,44.50
2023-04-04T20:42:25.972Z,39.10
2023-04-04T20:44:53.503Z,39.15
2023-04-04T20:47:42.620Z,80.35
2023-04-04T20:50:29.538Z,83.38
2023-04-04T20:53:01.431Z,42.05
2023-04-04T20:55:30.344Z,35.70
2023-04-04T20:58:09.608Z,35.03
2023-04-04T21:00:41.410Z,41.53
2023-04-04T21:03:26.440Z,47.13
2023-04-04T21:05:56.413Z,44.42
2023-04-04T21:08:23.986Z,38.95
2023-04-04T21:10:53.482Z,32.65
2023-04-04T21:13:27.796Z,32.05
2023-04-04T21:16:01.318Z,33.85
2023-04-04T21:18:31.152Z,32.05
2023-04-04T21:21:16.447Z,31.70
2023-04-04T21:23:48.634Z,31.77
2023-04-04T21:26:26.346Z,31.48
2023-04-04T21:28:53.584Z,32.25
2023-04-04T21:31:23.471Z,31.88
2023-04-04T21:33:55.440Z,31.77
2023-04-04T21:36:29.367Z,33.38
2023-04-04T21:39:06.457Z,33.00
2023-04-04T21:41:34.732Z,35.25
2023-04-04T21:44:04.437Z,34.05
2023-04-04T21:46:34.145Z,33.88
2023-04-04T21:49:01.403Z,34.60
2023-04-04T21:51:28.259Z,33.25
2023-04-04T21:53:55.456Z,31.35
2023-04-04T21:56:26.988Z,31.98
2023-04-04T21:58:55.406Z,30.25
2023-04-04T22:01:22.355Z,31.70
2023-04-04T22:03:48.968Z,31.50
2023-04-04T22:06:15.613Z,32.25
2023-04-04T22:08:42.634Z,30.83
2023-04-04T22:11:13.391Z,31.15
2023-04-04T22:13:46.750Z,32.03
2023-04-04T22:16:18.217Z,29.42
2023-04-04T22:18:51.768Z,30.60
2023-04-04T22:21:25.712Z,29.30
2023-04-04T22:23:53.808Z,29.27
2023-04-04T22:26:31.757Z,29.63
2023-04-04T22:29:03.380Z,29.42
2023-04-04T22:31:30.800Z,30.85
2023-04-04T22:33:57.679Z,31.20
2023-04-04T22:36:24.869Z,30.30
2023-04-04T22:38:56.663Z,29.90
2023-04-04T22:41:28.439Z,31.05
2023-04-04T22:43:56.942Z,31.45
2023-04-04T22:46:25.445Z,29.88
2023-04-04T22:49:04.191Z,31.40
2023-04-04T22:51:34.605Z,31.58
2023-04-04T22:54:02.287Z,30.98
2023-04-04T22:56:28.898Z,29.33
2023-04-04T22:58:55.846Z,29.02
2023-04-04T23:01:22.553Z,29.05
2023-04-04T23:03:49.245Z,29.48
2023-04-04T23:06:16.534Z,28.60
2023-04-04T23:08:46.881Z,28.85
2023-04-04T23:11:14.088Z,29.88
2023-04-04T23:13:43.058Z,29.42
2023-04-04T23:16:09.955Z,29.00
2023-04-04T23:18:36.581Z,29.88
2023-04-04T23:21:03.592Z,29.25
2023-04-04T23:23:30.396Z,30.33
2023-04-04T23:25:58.134Z,30.48
2023-04-04T23:28:24.772Z,30.00
2023-04-04T23:30:52.470Z,29.80
2023-04-04T23:33:19.060Z,30.13
2023-04-04T23:35:45.677Z,30.92
2023-04-04T23:38:13.392Z,30.05
2023-04-04T23:40:40.564Z,29.02
2023-04-04T23:43:07.365Z,28.27
2023-04-04T23:45:39.295Z,28.00
2023-04-04T23:48:06.200Z,27.30
2023-04-04T23:50:32.923Z,27.27
2023-04-04T23:52:59.540Z,27.80
2023-04-04T23:55:27.209Z,28.05
2023-04-04T23:57:56.050Z,28.08
